createdAt,value
2017-03-18T00:00:03.006Z,99.99
2017-03-18T00:05:03.005Z,99.54
2017-03-18T00:10:03.058Z,98.97
2017-03-18T00:15:03.095Z,97.64
2017-03-18T00:20:03.112Z,95.17
2017-03-18T00:25:03.137Z,94.6
2017-03-18T00:30:03.104Z,93.27
2017-03-18T00:35:03.218Z,92.14
2017-03-18T00:40:03.279Z,91.47
2017-03-18T00:45:03.277Z,89.76
2017-03-18T00:50:03.274Z,88.81
2017-03-18T00:55:03.389Z,88.06
2017-03-18T01:00:03.293Z,87.2
2017-03-18T01:05:03.433Z,86.72
2017-03-18T01:10:03.443Z,85.91
2017-03-18T01:15:03.484Z,86.01
2017-03-18T01:20:03.482Z,85.44
2017-03-18T01:25:03.513Z,84.97
2017-03-18T01:30:03.562Z,84.4
2017-03-18T01:35:03.557Z,83.83
2017-03-18T01:40:03.673Z,83.45
2017-03-18T01:45:03.667Z,83.36
2017-03-18T01:50:03.690Z,82.69
2017-03-18T01:55:03.693Z,82.5
2017-03-18T02:00:02.681Z,82.12
2017-03-18T02:05:02.710Z,82.12
2017-03-18T02:10:02.803Z,81.93
2017-03-18T02:15:02.776Z,81.93
2017-03-18T02:20:02.834Z,81.93
2017-03-18T02:25:02.830Z,81.93
2017-03-18T02:30:02.883Z,81.84
2017-03-18T02:35:02.912Z,81.65
2017-03-18T02:40:03.005Z,81.3
2017-03-18T02:45:03.036Z,81.4
2017-03-18T02:50:03.041Z,81.02
2017-03-18T02:55:03.054Z,80.64
2017-03-18T03:00:03.126Z,80.64
2017-03-18T03:05:03.142Z,80.55
2017-03-18T03:10:03.221Z,80.35
2017-03-18T03:15:03.184Z,79.97
2017-03-18T03:20:03.237Z,79.79
2017-03-18T03:25:03.266Z,79.69
2017-03-18T03:30:03.293Z,79.41
2017-03-18T03:35:03.350Z,79.41
2017-03-18T03:40:03.449Z,79.22
2017-03-18T03:45:03.417Z,79.06
2017-03-18T03:50:03.383Z,78.97
2017-03-18T03:55:03.475Z,78.78
2017-03-18T04:00:03.518Z,78.69
2017-03-18T04:05:03.530Z,78.59
2017-03-18T04:10:03.626Z,78.5
2017-03-18T04:15:03.555Z,78.3
2017-03-18T04:20:03.619Z,78.06
2017-03-18T04:25:03.661Z,77.77
2017-03-18T04:30:03.706Z,77.58
2017-03-18T04:35:03.665Z,77.3
2017-03-18T04:40:02.731Z,77.01
2017-03-18T04:45:02.709Z,76.92
2017-03-18T04:50:02.746Z,76.63
2017-03-18T04:55:02.806Z,76.57
2017-03-18T05:00:03.109Z,76.48
2017-03-18T05:05:03.140Z,76.29
2017-03-18T05:10:03.213Z,76.39
2017-03-18T05:15:03.208Z,76.39
2017-03-18T05:20:03.533Z,76.29
2017-03-18T05:25:03.626Z,76.29
2017-03-18T05:30:03.704Z,76.29
2017-03-18T05:35:03.699Z,76.1
2017-03-18T05:40:02.783Z,76.1
2017-03-18T05:45:02.897Z,76.1
2017-03-18T05:50:02.954Z,76.1
2017-03-18T05:55:02.981Z,76.2
2017-03-18T06:00:02.983Z,76.33
2017-03-18T06:05:03.048Z,76.23
2017-03-18T06:10:03.111Z,76.23
2017-03-18T06:15:03.066Z,76.23
2017-03-18T06:20:03.175Z,76.42
2017-03-18T06:25:03.194Z,76.61
2017-03-18T06:30:03.200Z,76.52
2017-03-18T06:35:03.232Z,76.61
2017-03-18T06:40:03.375Z,77.19
2017-03-18T06:45:03.443Z,77.19
2017-03-18T06:50:03.471Z,77.47
2017-03-18T06:55:03.493Z,77.66
2017-03-18T07:00:03.536Z,77.37
2017-03-18T07:05:03.523Z,77
2017-03-18T07:10:03.636Z,76.9
2017-03-18T07:15:02.707Z,76.52
2017-03-18T07:20:02.713Z,76.61
2017-03-18T07:25:02.707Z,76.33
2017-03-18T07:30:02.818Z,76.33
2017-03-18T07:35:02.851Z,76.52
2017-03-18T07:40:03.527Z,76.23
2017-03-18T07:45:03.876Z,76.37
2017-03-18T07:50:03.653Z,76.46
2017-03-18T07:55:03.425Z,76.37
2017-03-18T08:00:03.235Z,76.27
2017-03-18T08:05:02.952Z,76.18
2017-03-18T08:10:03.727Z,76.18
2017-03-18T08:15:03.418Z,76.37
2017-03-18T08:20:03.100Z,76.27
2017-03-18T08:25:02.706Z,76.75
2017-03-18T08:30:03.602Z,77.13
2017-03-18T08:35:03.257Z,78.12
2017-03-18T08:40:02.842Z,78.31
2017-03-18T08:45:03.477Z,78.31
2017-03-18T08:50:03.244Z,78.12
2017-03-18T08:55:02.944Z,78.59
2017-03-18T09:00:02.824Z,79.27
2017-03-18T09:05:03.455Z,79.74
2017-03-18T09:10:03.095Z,80.69
2017-03-18T09:15:02.818Z,81.74
2017-03-18T09:20:03.547Z,83.36
2017-03-18T09:25:03.334Z,84.36
2017-03-18T09:30:02.970Z,84.36
2017-03-18T09:35:03.724Z,85.21
2017-03-18T09:40:03.509Z,84.83
2017-03-18T09:45:03.255Z,84.92
2017-03-18T09:50:02.886Z,86.36
2017-03-18T09:55:03.559Z,88.07
2017-03-18T10:00:03.243Z,89.22
2017-03-18T10:05:02.941Z,88.26
2017-03-18T10:10:03.729Z,86.26
2017-03-18T10:15:03.305Z,84.83
2017-03-18T10:20:02.977Z,84.16
2017-03-18T10:25:02.798Z,82.92
2017-03-18T10:30:02.774Z,83.12
2017-03-18T10:35:03.504Z,82.73
2017-03-18T10:40:03.415Z,84.83
2017-03-18T10:45:03.134Z,86.4
2017-03-18T10:50:02.778Z,87.45
2017-03-18T10:55:02.911Z,89.36
2017-03-18T11:00:03.741Z,90.03
2017-03-18T11:05:03.417Z,91.64
2017-03-18T11:10:03.128Z,93.88
2017-03-18T11:15:02.812Z,98.37
2017-03-18T11:20:03.567Z,99.99
2017-03-18T11:25:03.236Z,99.99
2017-03-18T11:30:03.166Z,99.99
2017-03-18T11:35:02.923Z,99.99
2017-03-18T11:40:03.722Z,99.99
2017-03-18T11:45:03.480Z,99.99
2017-03-18T11:50:03.195Z,99.99
2017-03-18T11:55:03.251Z,99.99
2017-03-18T12:00:03.318Z,99.99
2017-03-18T12:05:03.081Z,99.95
2017-03-18T12:10:03.542Z,98.42
2017-03-18T12:15:02.800Z,97.08
2017-03-18T12:20:03.248Z,96.36
2017-03-18T12:25:03.167Z,95.41
2017-03-18T12:30:02.963Z,95.03
2017-03-18T12:35:03.160Z,95.41
2017-03-18T12:40:03.135Z,95.7
2017-03-18T12:45:02.931Z,94.84
2017-03-18T12:50:03.078Z,94.56
2017-03-18T12:55:03.121Z,94.27
2017-03-18T13:00:03.213Z,93.32
2017-03-18T13:05:02.988Z,92.74
2017-03-18T13:10:02.845Z,92.27
2017-03-18T13:15:03.522Z,91.88
2017-03-18T13:20:03.255Z,91.69
2017-03-18T13:25:03.052Z,91.31
2017-03-18T13:30:02.805Z,90.93
2017-03-18T13:35:03.382Z,91.03
2017-03-18T13:40:03.076Z,90.84
2017-03-18T13:45:02.813Z,91.41
2017-03-18T13:50:03.425Z,91.5
2017-03-18T13:55:03.116Z,91.69
2017-03-18T14:00:02.848Z,91.41
2017-03-18T14:05:03.503Z,91.65
2017-03-18T14:10:02.833Z,91.94
2017-03-18T14:15:03.666Z,92.6
2017-03-18T14:20:02.775Z,92.5
2017-03-18T14:25:03.506Z,92.41
2017-03-18T14:30:03.664Z,91.94
2017-03-18T14:35:03.228Z,91.84
2017-03-18T14:40:03.562Z,91.36
2017-03-18T14:45:03.243Z,91.84
2017-03-18T14:50:02.845Z,92.5
2017-03-18T14:55:03.274Z,92.6
2017-03-18T15:00:03.310Z,92.79
2017-03-18T15:05:03.095Z,93.27
2017-03-18T15:10:03.317Z,94.32
2017-03-18T15:15:03.334Z,93.93
2017-03-18T15:20:03.427Z,93.55
2017-03-18T15:25:02.849Z,94.13
2017-03-18T15:30:03.304Z,93.84
2017-03-18T15:35:02.755Z,93.65
2017-03-18T15:40:03.180Z,95.36
2017-03-18T15:45:03.680Z,95.79
2017-03-18T15:50:02.740Z,95.89
2017-03-18T15:55:02.852Z,96.36
2017-03-18T16:00:03.462Z,96.46
2017-03-18T16:05:03.328Z,96.46
2017-03-18T16:10:03.709Z,97.31
2017-03-18T16:15:02.757Z,97.51
2017-03-18T16:20:02.877Z,97.13
2017-03-18T16:25:03.066Z,96.65
2017-03-18T16:30:02.968Z,97.17
2017-03-18T16:35:03.704Z,96.98
2017-03-18T16:40:03.463Z,96.79
2017-03-18T16:45:03.129Z,96.51
2017-03-18T16:50:02.890Z,96.22
2017-03-18T16:55:03.690Z,95.65
2017-03-18T17:00:03.308Z,95.56
2017-03-18T17:05:02.916Z,94.98
2017-03-18T17:10:03.647Z,94.89
2017-03-18T17:15:03.295Z,94.79
2017-03-18T17:20:03.011Z,94.22
2017-03-18T17:25:03.635Z,93.94
2017-03-18T17:30:03.295Z,93.84
2017-03-18T17:35:02.949Z,94.32
2017-03-18T17:40:03.607Z,94.08
2017-03-18T17:45:03.295Z,93.98
2017-03-18T17:50:03.025Z,93.98
2017-03-18T17:55:02.772Z,93.7
2017-03-18T18:00:03.527Z,93.41
2017-03-18T18:05:03.245Z,93.04
2017-03-18T18:10:02.911Z,92.27
2017-03-18T18:15:03.559Z,91.89
2017-03-18T18:20:03.266Z,91.32
2017-03-18T18:25:02.935Z,90.94
2017-03-18T18:30:03.484Z,90.37
2017-03-18T18:35:03.207Z,89.89
2017-03-18T18:40:02.878Z,89.7
2017-03-18T18:45:03.472Z,88.9
2017-03-18T18:50:03.033Z,88.52
2017-03-18T18:55:02.733Z,88.42
2017-03-18T19:00:03.485Z,88.13
2017-03-18T19:05:03.212Z,87.85
2017-03-18T19:10:02.843Z,87.66
2017-03-18T19:15:03.498Z,87.28
2017-03-18T19:20:03.103Z,87.09
2017-03-18T19:25:03.692Z,86.71
2017-03-18T19:30:03.424Z,86.61
2017-03-18T19:35:03.182Z,86.8
2017-03-18T19:40:02.805Z,86.52
2017-03-18T19:45:03.549Z,86.43
2017-03-18T19:50:03.161Z,86.24
2017-03-18T19:55:02.867Z,86.05
2017-03-18T20:00:03.666Z,85.76
2017-03-18T20:05:03.419Z,85.28
2017-03-18T20:10:03.098Z,85.19
2017-03-18T20:15:02.925Z,85
2017-03-18T20:20:03.562Z,85
2017-03-18T20:25:03.239Z,84.62
2017-03-18T20:30:02.846Z,84.52
2017-03-18T20:35:03.596Z,84.33
2017-03-18T20:40:03.304Z,84.24
2017-03-18T20:45:03.015Z,84.14
2017-03-18T20:50:02.799Z,83.95
2017-03-18T20:55:03.407Z,83.67
2017-03-18T21:00:03.133Z,83.67
2017-03-18T21:05:02.873Z,83.39
2017-03-18T21:10:03.656Z,83.1
2017-03-18T21:15:03.427Z,82.62
2017-03-18T21:20:03.162Z,82.53
2017-03-18T21:25:02.877Z,82.43
2017-03-18T21:30:03.676Z,82.15
2017-03-18T21:35:03.390Z,82.05
2017-03-18T21:40:03.200Z,81.96
2017-03-18T21:45:02.938Z,81.77
2017-03-18T21:50:03.609Z,81.67
2017-03-18T21:55:03.376Z,81.48
2017-03-18T22:00:03.282Z,81.38
2017-03-18T22:05:03.114Z,81.48
2017-03-18T22:10:02.868Z,81.29
2017-03-18T22:15:03.632Z,81.2
2017-03-18T22:20:03.399Z,81.2
2017-03-18T22:25:03.158Z,81.2
2017-03-18T22:30:02.819Z,81.1
2017-03-18T22:35:03.602Z,81.1
2017-03-18T22:40:03.385Z,81.1
2017-03-18T22:45:03.073Z,81.01
2017-03-18T22:50:02.783Z,81.01
2017-03-18T22:55:03.530Z,81.01
2017-03-18T23:00:03.251Z,80.91
2017-03-18T23:05:02.964Z,81.01
2017-03-18T23:10:03.605Z,80.82
2017-03-18T23:15:03.396Z,80.72
2017-03-18T23:20:03.008Z,80.66
2017-03-18T23:25:03.732Z,80.66
2017-03-18T23:30:03.358Z,80.57
2017-03-18T23:35:03.170Z,80.57
2017-03-18T23:40:02.871Z,80.47
2017-03-18T23:45:03.469Z,80.47
2017-03-18T23:50:03.272Z,80.57
2017-03-18T23:55:02.901Z,80.38
